sensor_id;sensor_type;location;lat;lon;timestamp;pressure;altitude;pressure_sealevel;temperature;humidity
63439;BME280;49567;48.958;8.294;2022-11-18T00:00:53;98533.88;;;11.15;86.67
63439;BME280;49567;48.958;8.294;2022-11-18T00:03:18;98532.63;;;11.07;87.05
63439;BME280;49567;48.958;8.294;2022-11-18T00:05:56;98535.94;;;11.04;87.30
63439;BME280;49567;48.958;8.294;2022-11-18T00:08:25;98528.03;;;11.08;87.50
63439;BME280;49567;48.958;8.294;2022-11-18T00:10:51;98524.94;;;11.14;87.15
63439;BME280;49567;48.958;8.294;2022-11-18T00:13:17;98530.06;;;11.16;86.92
63439;BME280;49567;48.958;8.294;2022-11-18T00:16:02;98533.78;;;11.20;87.01
63439;BME280;49567;48.958;8.294;2022-11-18T00:18:28;98533.72;;;11.25;86.66
63439;BME280;49567;48.958;8.294;2022-11-18T00:20:54;98534.22;;;11.27;86.67
63439;BME280;49567;48.958;8.294;2022-11-18T00:23:19;98529.59;;;11.27;86.66
63439;BME280;49567;48.958;8.294;2022-11-18T00:25:44;98534.22;;;11.27;86.96
63439;BME280;49567;48.958;8.294;2022-11-18T00:28:10;98535.56;;;11.29;86.68
63439;BME280;49567;48.958;8.294;2022-11-18T00:30:35;98537.47;;;11.29;86.93
63439;BME280;49567;48.958;8.294;2022-11-18T00:33:00;98539.03;;;11.30;86.96
63439;BME280;49567;48.958;8.294;2022-11-18T00:35:25;98540.16;;;11.29;86.99
63439;BME280;49567;48.958;8.294;2022-11-18T00:37:51;98530.13;;;11.29;86.98
63439;BME280;49567;48.958;8.294;2022-11-18T00:40:16;98537.66;;;11.32;87.13
63439;BME280;49567;48.958;8.294;2022-11-18T00:42:41;98535.03;;;11.27;87.12
63439;BME280;49567;48.958;8.294;2022-11-18T00:45:19;98535.84;;;11.28;87.15
63439;BME280;49567;48.958;8.294;2022-11-18T00:47:45;98538.25;;;11.29;87.18
63439;BME280;49567;48.958;8.294;2022-11-18T00:50:10;98547.78;;;11.27;87.36
63439;BME280;49567;48.958;8.294;2022-11-18T00:52:36;98537.72;;;11.27;87.47
63439;BME280;49567;48.958;8.294;2022-11-18T00:55:01;98533.63;;;11.30;87.49
63439;BME280;49567;48.958;8.294;2022-11-18T00:57:26;98544.19;;;11.31;87.56
63439;BME280;49567;48.958;8.294;2022-11-18T00:59:51;98546.41;;;11.29;87.42
63439;BME280;49567;48.958;8.294;2022-11-18T01:02:17;98556.44;;;11.29;87.50
63439;BME280;49567;48.958;8.294;2022-11-18T01:04:42;98552.09;;;11.28;87.83
63439;BME280;49567;48.958;8.294;2022-11-18T01:07:07;98568.97;;;11.25;87.91
63439;BME280;49567;48.958;8.294;2022-11-18T01:09:33;98565.22;;;11.21;87.83
63439;BME280;49567;48.958;8.294;2022-11-18T01:11:58;98570.06;;;11.24;87.99
63439;BME280;49567;48.958;8.294;2022-11-18T01:14:42;98568.47;;;11.23;87.91
63439;BME280;49567;48.958;8.294;2022-11-18T01:17:07;98577.91;;;11.25;87.87
63439;BME280;49567;48.958;8.294;2022-11-18T01:19:32;98576.94;;;11.35;87.51
63439;BME280;49567;48.958;8.294;2022-11-18T01:21:58;98580.97;;;11.37;87.78
63439;BME280;49567;48.958;8.294;2022-11-18T01:24:33;98580.47;;;11.35;87.56
63439;BME280;49567;48.958;8.294;2022-11-18T01:27:00;98582.97;;;11.32;87.80
63439;BME280;49567;48.958;8.294;2022-11-18T01:29:25;98582.16;;;11.31;87.92
63439;BME280;49567;48.958;8.294;2022-11-18T01:31:51;98586.53;;;11.27;88.09
63439;BME280;49567;48.958;8.294;2022-11-18T01:34:16;98588.44;;;11.27;88.14
63439;BME280;49567;48.958;8.294;2022-11-18T01:36:41;98599.59;;;11.25;88.23
63439;BME280;49567;48.958;8.294;2022-11-18T01:39:07;98595.88;;;11.21;88.46
63439;BME280;49567;48.958;8.294;2022-11-18T01:41:32;98602.69;;;11.19;88.61
63439;BME280;49567;48.958;8.294;2022-11-18T01:44:00;98599.53;;;11.12;88.60
63439;BME280;49567;48.958;8.294;2022-11-18T01:46:28;98594.25;;;11.02;89.13
63439;BME280;49567;48.958;8.294;2022-11-18T01:49:07;98595.50;;;11.09;89.11
63439;BME280;49567;48.958;8.294;2022-11-18T01:51:36;98597.19;;;11.05;89.16
63439;BME280;49567;48.958;8.294;2022-11-18T01:54:08;98607.16;;;11.10;89.39
63439;BME280;49567;48.958;8.294;2022-11-18T01:56:41;98628.75;;;11.15;88.86
63439;BME280;49567;48.958;8.294;2022-11-18T01:59:12;98634.03;;;11.06;89.31
63439;BME280;49567;48.958;8.294;2022-11-18T02:01:39;98633.81;;;11.03;89.84
63439;BME280;49567;48.958;8.294;2022-11-18T02:04:06;98629.50;;;11.02;90.28
63439;BME280;49567;48.958;8.294;2022-11-18T02:06:32;98626.63;;;10.93;90.75
63439;BME280;49567;48.958;8.294;2022-11-18T02:08:58;98635.13;;;10.86;90.68
63439;BME280;49567;48.958;8.294;2022-11-18T02:11:23;98634.66;;;10.79;91.27
63439;BME280;49567;48.958;8.294;2022-11-18T02:14:08;98645.66;;;10.88;91.25
63439;BME280;49567;48.958;8.294;2022-11-18T02:19:48;98659.53;;;11.05;90.56
63439;BME280;49567;48.958;8.294;2022-11-18T02:30:12;98686.25;;;10.93;91.39
63439;BME280;49567;48.958;8.294;2022-11-18T02:32:56;98679.78;;;10.89;91.64
63439;BME280;49567;48.958;8.294;2022-11-18T02:35:27;98694.19;;;10.84;91.94
63439;BME280;49567;48.958;8.294;2022-11-18T02:37:58;98691.78;;;10.83;92.05
63439;BME280;49567;48.958;8.294;2022-11-18T02:40:36;98697.72;;;10.85;91.97
63439;BME280;49567;48.958;8.294;2022-11-18T02:43:09;98708.28;;;10.86;91.90
63439;BME280;49567;48.958;8.294;2022-11-18T02:45:39;98703.66;;;10.87;91.95
63439;BME280;49567;48.958;8.294;2022-11-18T02:48:08;98705.28;;;10.88;92.03
63439;BME280;49567;48.958;8.294;2022-11-18T02:50:35;98701.47;;;10.89;92.01
63439;BME280;49567;48.958;8.294;2022-11-18T02:53:04;98700.44;;;10.85;92.06
63439;BME280;49567;48.958;8.294;2022-11-18T02:55:33;98698.56;;;10.80;92.09
63439;BME280;49567;48.958;8.294;2022-11-18T02:58:00;98698.16;;;10.73;92.39
63439;BME280;49567;48.958;8.294;2022-11-18T03:00:27;98699.81;;;10.69;92.65
63439;BME280;49567;48.958;8.294;2022-11-18T03:02:52;98699.22;;;10.72;92.72
63439;BME280;49567;48.958;8.294;2022-11-18T03:05:41;98704.31;;;10.79;92.48
63439;BME280;49567;48.958;8.294;2022-11-18T03:08:16;98708.69;;;10.75;92.34
63439;BME280;49567;48.958;8.294;2022-11-18T03:10:56;98717.03;;;10.78;92.45
63439;BME280;49567;48.958;8.294;2022-11-18T03:13:33;98716.75;;;10.80;92.55
63439;BME280;49567;48.958;8.294;2022-11-18T03:16:13;98716.47;;;10.81;92.41
63439;BME280;49567;48.958;8.294;2022-11-18T03:18:57;98721.88;;;10.81;92.38
63439;BME280;49567;48.958;8.294;2022-11-18T03:21:43;98723.50;;;10.82;92.37
63439;BME280;49567;48.958;8.294;2022-11-18T03:24:17;98732.13;;;10.84;92.15
63439;BME280;49567;48.958;8.294;2022-11-18T03:26:50;98729.16;;;10.86;92.24
63439;BME280;49567;48.958;8.294;2022-11-18T03:29:22;98728.94;;;10.82;92.18
63439;BME280;49567;48.958;8.294;2022-11-18T03:32:11;98731.06;;;10.85;92.30
63439;BME280;49567;48.958;8.294;2022-11-18T03:34:44;98734.81;;;10.89;92.24
63439;BME280;49567;48.958;8.294;2022-11-18T03:37:13;98740.75;;;10.91;92.25
63439;BME280;49567;48.958;8.294;2022-11-18T03:39:46;98747.25;;;10.90;92.11
63439;BME280;49567;48.958;8.294;2022-11-18T03:42:23;98742.69;;;10.86;92.44
63439;BME280;49567;48.958;8.294;2022-11-18T03:44:53;98751.84;;;10.90;92.09
63439;BME280;49567;48.958;8.294;2022-11-18T03:47:34;98755.72;;;10.84;92.04
63439;BME280;49567;48.958;8.294;2022-11-18T03:50:19;98756.06;;;10.77;92.26
63439;BME280;49567;48.958;8.294;2022-11-18T03:52:48;98757.75;;;10.73;92.16
63439;BME280;49567;48.958;8.294;2022-11-18T03:55:18;98761.81;;;10.71;92.44
63439;BME280;49567;48.958;8.294;2022-11-18T03:57:50;98760.72;;;10.72;92.12
63439;BME280;49567;48.958;8.294;2022-11-18T04:00:18;98764.53;;;10.71;92.00
63439;BME280;49567;48.958;8.294;2022-11-18T04:02:45;98769.44;;;10.69;91.66
63439;BME280;49567;48.958;8.294;2022-11-18T04:05:12;98770.84;;;10.61;91.82
63439;BME280;49567;48.958;8.294;2022-11-18T04:10:24;98777.31;;;10.65;91.71
63439;BME280;49567;48.958;8.294;2022-11-18T04:13:05;98782.75;;;10.65;91.50
63439;BME280;49567;48.958;8.294;2022-11-18T04:15:31;98787.69;;;10.58;91.38
63439;BME280;49567;48.958;8.294;2022-11-18T04:17:57;98791.47;;;10.57;91.36
63439;BME280;49567;48.958;8.294;2022-11-18T04:20:23;98787.97;;;10.57;91.34
63439;BME280;49567;48.958;8.294;2022-11-18T04:22:49;98798.00;;;10.56;91.25
63439;BME280;49567;48.958;8.294;2022-11-18T04:25:14;98789.34;;;10.54;91.27
63439;BME280;49567;48.958;8.294;2022-11-18T04:27:40;98790.13;;;10.60;91.21
63439;BME280;49567;48.958;8.294;2022-11-18T04:30:06;98801.72;;;10.65;90.92
63439;BME280;49567;48.958;8.294;2022-11-18T04:32:32;98797.69;;;10.63;90.84
63439;BME280;49567;48.958;8.294;2022-11-18T04:34:57;98808.03;;;10.56;90.74
63439;BME280;49567;48.958;8.294;2022-11-18T04:37:23;98804.56;;;10.50;90.45
63439;BME280;49567;48.958;8.294;2022-11-18T04:39:49;98814.94;;;10.38;90.87
63439;BME280;49567;48.958;8.294;2022-11-18T04:42:14;98817.66;;;10.38;90.75
63439;BME280;49567;48.958;8.294;2022-11-18T04:44:39;98808.94;;;10.41;90.46
63439;BME280;49567;48.958;8.294;2022-11-18T04:47:05;98810.88;;;10.40;90.18
63439;BME280;49567;48.958;8.294;2022-11-18T04:49:31;98816.28;;;10.40;89.96
63439;BME280;49567;48.958;8.294;2022-11-18T04:51:57;98818.22;;;10.35;90.20
63439;BME280;49567;48.958;8.294;2022-11-18T04:54:23;98825.53;;;10.34;90.00
63439;BME280;49567;48.958;8.294;2022-11-18T04:56:49;98822.31;;;10.32;89.94
63439;BME280;49567;48.958;8.294;2022-11-18T04:59:17;98825.56;;;10.29;89.80
63439;BME280;49567;48.958;8.294;2022-11-18T05:01:43;98828.34;;;10.19;90.00
63439;BME280;49567;48.958;8.294;2022-11-18T05:04:12;98830.81;;;10.16;90.14
63439;BME280;49567;48.958;8.294;2022-11-18T05:06:38;98839.19;;;10.19;90.03
63439;BME280;49567;48.958;8.294;2022-11-18T05:09:03;98844.88;;;10.13;89.67
63439;BME280;49567;48.958;8.294;2022-11-18T05:11:28;98842.19;;;10.13;90.03
63439;BME280;49567;48.958;8.294;2022-11-18T05:14:13;98854.09;;;10.12;89.80
63439;BME280;49567;48.958;8.294;2022-11-18T05:16:38;98846.81;;;10.07;89.82
63439;BME280;49567;48.958;8.294;2022-11-18T05:19:04;98856.53;;;10.08;89.81
63439;BME280;49567;48.958;8.294;2022-11-18T05:21:30;98857.66;;;10.07;89.67
63439;BME280;49567;48.958;8.294;2022-11-18T05:23:55;98859.25;;;10.08;89.22
63439;BME280;49567;48.958;8.294;2022-11-18T05:26:21;98863.59;;;10.09;89.21
63439;BME280;49567;48.958;8.294;2022-11-18T05:28:46;98865.78;;;10.02;89.21
63439;BME280;49567;48.958;8.294;2022-11-18T05:31:13;98861.44;;;10.01;89.44
63439;BME280;49567;48.958;8.294;2022-11-18T05:33:39;98869.03;;;10.04;89.43
63439;BME280;49567;48.958;8.294;2022-11-18T05:36:10;98868.47;;;10.07;88.91
63439;BME280;49567;48.958;8.294;2022-11-18T05:38:36;98876.88;;;10.06;89.04
63439;BME280;49567;48.958;8.294;2022-11-18T05:41:02;98878.75;;;10.10;88.85
63439;BME280;49567;48.958;8.294;2022-11-18T05:43:28;98882.50;;;10.14;89.00
63439;BME280;49567;48.958;8.294;2022-11-18T05:45:54;98883.84;;;10.12;88.86
63439;BME280;49567;48.958;8.294;2022-11-18T05:48:20;98889.00;;;10.13;88.73
63439;BME280;49567;48.958;8.294;2022-11-18T05:50:47;98884.44;;;10.14;88.89
63439;BME280;49567;48.958;8.294;2022-11-18T05:53:13;98894.97;;;10.15;88.69
63439;BME280;49567;48.958;8.294;2022-11-18T05:58:26;98898.50;;;10.11;88.67
63439;BME280;49567;48.958;8.294;2022-11-18T06:00:54;98889.59;;;10.05;88.48
63439;BME280;49567;48.958;8.294;2022-11-18T06:03:24;98884.81;;;9.87;88.79
63439;BME280;49567;48.958;8.294;2022-11-18T06:05:53;98890.50;;;9.85;88.95
63439;BME280;49567;48.958;8.294;2022-11-18T06:08:19;98892.38;;;9.90;88.99
63439;BME280;49567;48.958;8.294;2022-11-18T06:10:46;98905.06;;;9.95;88.87
63439;BME280;49567;48.958;8.294;2022-11-18T06:13:18;98903.72;;;9.97;88.32
63439;BME280;49567;48.958;8.294;2022-11-18T06:15:45;98904.28;;;9.94;88.87
63439;BME280;49567;48.958;8.294;2022-11-18T06:18:23;98905.59;;;9.97;88.50
63439;BME280;49567;48.958;8.294;2022-11-18T06:20:52;98904.28;;;9.94;88.66
63439;BME280;49567;48.958;8.294;2022-11-18T06:23:18;98912.66;;;9.98;88.56
63439;BME280;49567;48.958;8.294;2022-11-18T06:25:44;98920.47;;;9.99;88.75
63439;BME280;49567;48.958;8.294;2022-11-18T06:28:11;98922.38;;;9.99;88.45
63439;BME280;49567;48.958;8.294;2022-11-18T06:30:38;98931.59;;;9.93;88.72
63439;BME280;49567;48.958;8.294;2022-11-18T06:33:03;98940.00;;;9.91;88.66
63439;BME280;49567;48.958;8.294;2022-11-18T06:35:28;98948.66;;;9.88;88.57
63439;BME280;49567;48.958;8.294;2022-11-18T06:38:00;98940.00;;;9.91;88.67
63439;BME280;49567;48.958;8.294;2022-11-18T06:40:26;98946.47;;;9.95;88.56
63439;BME280;49567;48.958;8.294;2022-11-18T06:42:51;98951.09;;;9.89;88.46
63439;BME280;49567;48.958;8.294;2022-11-18T06:45:45;98956.25;;;9.86;88.83
63439;BME280;49567;48.958;8.294;2022-11-18T06:48:30;98951.63;;;9.91;89.00
63439;BME280;49567;48.958;8.294;2022-11-18T06:50:56;98970.00;;;10.00;88.63
63439;BME280;49567;48.958;8.294;2022-11-18T06:53:21;98969.19;;;9.99;88.39
63439;BME280;49567;48.958;8.294;2022-11-18T06:55:46;98972.66;;;10.05;88.35
63439;BME280;49567;48.958;8.294;2022-11-18T06:58:12;98970.22;;;10.08;88.26
63439;BME280;49567;48.958;8.294;2022-11-18T07:00:37;98972.97;;;10.03;88.75
63439;BME280;49567;48.958;8.294;2022-11-18T07:03:02;98983.22;;;10.06;88.35
63439;BME280;49567;48.958;8.294;2022-11-18T07:05:27;98978.91;;;10.05;88.45
63439;BME280;49567;48.958;8.294;2022-11-18T07:07:53;98984.03;;;10.07;88.54
63439;BME280;49567;48.958;8.294;2022-11-18T07:10:21;98979.44;;;10.07;88.44
63439;BME280;49567;48.958;8.294;2022-11-18T07:12:46;98994.88;;;10.02;88.74
63439;BME280;49567;48.958;8.294;2022-11-18T07:15:11;99000.00;;;10.08;88.50
63439;BME280;49567;48.958;8.294;2022-11-18T07:17:37;98998.41;;;10.07;88.28
63439;BME280;49567;48.958;8.294;2022-11-18T07:20:03;98999.19;;;10.08;88.63
63439;BME280;49567;48.958;8.294;2022-11-18T07:22:28;99001.66;;;9.99;88.56
63439;BME280;49567;48.958;8.294;2022-11-18T07:24:53;99004.09;;;10.01;89.02
63439;BME280;49567;48.958;8.294;2022-11-18T07:27:19;99011.38;;;10.05;88.83
63439;BME280;49567;48.958;8.294;2022-11-18T07:29:44;99018.41;;;10.06;88.80
63439;BME280;49567;48.958;8.294;2022-11-18T07:32:09;99007.03;;;10.09;88.93
63439;BME280;49567;48.958;8.294;2022-11-18T07:34:34;99018.41;;;10.16;88.60
63439;BME280;49567;48.958;8.294;2022-11-18T07:37:00;99024.91;;;10.15;88.47
63439;BME280;49567;48.958;8.294;2022-11-18T07:39:25;99024.34;;;10.13;88.72
63439;BME280;49567;48.958;8.294;2022-11-18T07:41:54;99030.63;;;10.14;88.84
63439;BME280;49567;48.958;8.294;2022-11-18T07:44:23;99038.97;;;10.12;89.06
63439;BME280;49567;48.958;8.294;2022-11-18T07:46:48;99040.31;;;10.20;88.85
63439;BME280;49567;48.958;8.294;2022-11-18T07:49:13;99051.69;;;10.22;88.62
63439;BME280;49567;48.958;8.294;2022-11-18T07:51:39;99049.53;;;10.24;88.25
63439;BME280;49567;48.958;8.294;2022-11-18T07:54:10;99056.03;;;10.18;88.83
63439;BME280;49567;48.958;8.294;2022-11-18T07:56:35;99059.28;;;10.15;88.96
63439;BME280;49567;48.958;8.294;2022-11-18T07:59:01;99060.91;;;10.16;88.89
63439;BME280;49567;48.958;8.294;2022-11-18T08:01:26;99061.16;;;10.19;89.01
63439;BME280;49567;48.958;8.294;2022-11-18T08:03:56;99059.81;;;10.22;89.02
63439;BME280;49567;48.958;8.294;2022-11-18T08:06:22;99067.09;;;10.21;89.14
63439;BME280;49567;48.958;8.294;2022-11-18T08:08:47;99062.00;;;10.20;89.35
63439;BME280;49567;48.958;8.294;2022-11-18T08:11:15;99068.75;;;10.22;88.99
63439;BME280;49567;48.958;8.294;2022-11-18T08:13:41;99069.56;;;10.18;89.35
63439;BME280;49567;48.958;8.294;2022-11-18T08:16:24;99074.41;;;10.21;89.20
63439;BME280;49567;48.958;8.294;2022-11-18T08:18:50;99076.03;;;10.22;89.07
63439;BME280;49567;48.958;8.294;2022-11-18T08:21:17;99078.19;;;10.30;88.86
63439;BME280;49567;48.958;8.294;2022-11-18T08:23:48;99085.78;;;10.33;88.88
63439;BME280;49567;48.958;8.294;2022-11-18T08:26:14;99085.78;;;10.33;88.86
63439;BME280;49567;48.958;8.294;2022-11-18T08:28:41;99081.69;;;10.35;88.91
63439;BME280;49567;48.958;8.294;2022-11-18T08:31:17;99080.88;;;10.35;88.91
63439;BME280;49567;48.958;8.294;2022-11-18T08:33:43;99085.22;;;10.31;88.98
63439;BME280;49567;48.958;8.294;2022-11-18T08:36:12;99080.34;;;10.33;89.17
63439;BME280;49567;48.958;8.294;2022-11-18T08:38:38;99089.81;;;10.35;89.28
63439;BME280;49567;48.958;8.294;2022-11-18T08:41:03;99093.03;;;10.37;89.24
63439;BME280;49567;48.958;8.294;2022-11-18T08:43:30;99094.69;;;10.38;89.01
63439;BME280;49567;48.958;8.294;2022-11-18T08:45:56;99091.97;;;10.38;89.07
63439;BME280;49567;48.958;8.294;2022-11-18T08:48:21;99099.00;;;10.39;89.29
63439;BME280;49567;48.958;8.294;2022-11-18T08:50:46;99103.59;;;10.44;89.42
63439;BME280;49567;48.958;8.294;2022-11-18T08:53:11;99103.06;;;10.47;89.04
63439;BME280;49567;48.958;8.294;2022-11-18T08:55:37;99098.16;;;10.49;89.22
63439;BME280;49567;48.958;8.294;2022-11-18T08:58:02;99096.78;;;10.57;88.87
63439;BME280;49567;48.958;8.294;2022-11-18T09:00:27;99109.78;;;10.60;88.95
63439;BME280;49567;48.958;8.294;2022-11-18T09:02:52;99110.28;;;10.62;88.69
63439;BME280;49567;48.958;8.294;2022-11-18T09:05:18;99111.41;;;10.56;88.90
63439;BME280;49567;48.958;8.294;2022-11-18T09:07:43;99117.13;;;10.49;89.42
63439;BME280;49567;48.958;8.294;2022-11-18T09:10:11;99123.34;;;10.50;89.50
63439;BME280;49567;48.958;8.294;2022-11-18T09:12:37;99119.78;;;10.54;89.58
63439;BME280;49567;48.958;8.294;2022-11-18T09:15:02;99117.91;;;10.60;89.29
63439;BME280;49567;48.958;8.294;2022-11-18T09:17:28;99124.34;;;10.64;89.09
63439;BME280;49567;48.958;8.294;2022-11-18T09:19:53;99130.31;;;10.66;89.21
63439;BME280;49567;48.958;8.294;2022-11-18T09:22:18;99121.34;;;10.70;89.19
63439;BME280;49567;48.958;8.294;2022-11-18T09:24:44;99125.69;;;10.76;88.97
63439;BME280;49567;48.958;8.294;2022-11-18T09:27:09;99130.00;;;10.77;88.89
63439;BME280;49567;48.958;8.294;2022-11-18T09:29:34;99127.78;;;10.84;88.70
63439;BME280;49567;48.958;8.294;2022-11-18T09:32:00;99128.03;;;10.93;88.55
63439;BME280;49567;48.958;8.294;2022-11-18T09:34:27;99125.34;;;10.93;88.62
63439;BME280;49567;48.958;8.294;2022-11-18T09:36:52;99135.56;;;11.01;88.25
63439;BME280;49567;48.958;8.294;2022-11-18T09:39:20;99134.44;;;11.07;88.09
63439;BME280;49567;48.958;8.294;2022-11-18T09:41:47;99145.03;;;11.04;88.06
63439;BME280;49567;48.958;8.294;2022-11-18T09:44:40;99138.84;;;10.98;88.17
63439;BME280;49567;48.958;8.294;2022-11-18T09:47:28;99148.88;;;10.98;88.65
63439;BME280;49567;48.958;8.294;2022-11-18T09:50:03;99156.19;;;11.02;88.69
63439;BME280;49567;48.958;8.294;2022-11-18T09:52:38;99157.75;;;11.08;88.47
63439;BME280;49567;48.958;8.294;2022-11-18T09:55:16;99155.25;;;11.17;88.27
63439;BME280;49567;48.958;8.294;2022-11-18T09:57:45;99162.06;;;11.19;88.45
63439;BME280;49567;48.958;8.294;2022-11-18T10:00:26;99162.00;;;11.24;88.10
63439;BME280;49567;48.958;8.294;2022-11-18T10:03:45;99168.25;;;11.20;88.43
63439;BME280;49567;48.958;8.294;2022-11-18T10:06:04;99164.75;;;11.19;88.37
63439;BME280;49567;48.958;8.294;2022-11-18T10:21:56;99188.25;;;11.34;88.07
63439;BME280;49567;48.958;8.294;2022-11-18T10:24:26;99190.41;;;11.37;88.15
63439;BME280;49567;48.958;8.294;2022-11-18T10:26:58;99188.50;;;11.42;88.08
63439;BME280;49567;48.958;8.294;2022-11-18T10:29:24;99194.38;;;11.55;87.77
63439;BME280;49567;48.958;8.294;2022-11-18T10:32:02;99194.88;;;11.62;87.70
63439;BME280;49567;48.958;8.294;2022-11-18T10:34:28;99189.47;;;11.57;87.71
63439;BME280;49567;48.958;8.294;2022-11-18T10:39:26;99185.53;;;11.39;88.12
63439;BME280;49567;48.958;8.294;2022-11-18T10:41:56;99198.28;;;11.38;88.36
63439;BME280;49567;48.958;8.294;2022-11-18T10:44:39;99193.63;;;11.44;88.36
63439;BME280;49567;48.958;8.294;2022-11-18T10:47:15;99195.50;;;11.49;88.14
63439;BME280;49567;48.958;8.294;2022-11-18T10:49:41;99199.53;;;11.51;88.06
63439;BME280;49567;48.958;8.294;2022-11-18T10:52:11;99190.03;;;11.54;88.24
63439;BME280;49567;48.958;8.294;2022-11-18T10:54:37;99195.50;;;11.49;87.90
63439;BME280;49567;48.958;8.294;2022-11-18T10:57:14;99197.41;;;11.43;88.13
63439;BME280;49567;48.958;8.294;2022-11-18T10:59:55;99197.66;;;11.46;88.25
63439;BME280;49567;48.958;8.294;2022-11-18T11:02:38;99196.59;;;11.48;87.85
63439;BME280;49567;48.958;8.294;2022-11-18T11:05:21;99193.88;;;11.48;88.24
63439;BME280;49567;48.958;8.294;2022-11-18T11:08:25;99191.66;;;11.55;87.97
63439;BME280;49567;48.958;8.294;2022-11-18T11:10:57;99198.16;;;11.59;87.55
63439;BME280;49567;48.958;8.294;2022-11-18T11:13:26;99201.13;;;11.62;87.58
63439;BME280;49567;48.958;8.294;2022-11-18T11:15:55;99192.63;;;11.74;87.30
63439;BME280;49567;48.958;8.294;2022-11-18T11:18:26;99199.88;;;11.83;87.08
63439;BME280;49567;48.958;8.294;2022-11-18T11:21:14;99193.00;;;11.96;86.62
63439;BME280;49567;48.958;8.294;2022-11-18T11:23:40;99199.28;;;11.91;86.40
63439;BME280;49567;48.958;8.294;2022-11-18T11:26:27;99205.28;;;11.88;86.85
63439;BME280;49567;48.958;8.294;2022-11-18T11:29:00;99200.88;;;11.92;87.00
63439;BME280;49567;48.958;8.294;2022-11-18T11:31:44;99204.72;;;11.91;86.89
63439;BME280;49567;48.958;8.294;2022-11-18T11:34:35;99218.63;;;11.85;86.90
63439;BME280;49567;48.958;8.294;2022-11-18T11:37:18;99207.50;;;11.81;87.12
63439;BME280;49567;48.958;8.294;2022-11-18T11:39:55;99214.03;;;11.80;87.13
63439;BME280;49567;48.958;8.294;2022-11-18T11:42:55;99214.84;;;11.81;87.07
63439;BME280;49567;48.958;8.294;2022-11-18T11:45:32;99220.53;;;11.79;87.00
63439;BME280;49567;48.958;8.294;2022-11-18T11:48:55;99211.91;;;11.72;86.79
63439;BME280;49567;48.958;8.294;2022-11-18T11:50:58;99226.56;;;11.66;87.09
63439;BME280;49567;48.958;8.294;2022-11-18T11:59:32;99225.75;;;11.71;86.89
63439;BME280;49567;48.958;8.294;2022-11-18T12:05:15;99226.28;;;11.73;86.67
63439;BME280;49567;48.958;8.294;2022-11-18T12:07:56;99227.03;;;11.83;86.36
63439;BME280;49567;48.958;8.294;2022-11-18T12:13:13;99222.78;;;12.06;85.77
63439;BME280;49567;48.958;8.294;2022-11-18T12:16:03;99232.97;;;12.19;85.29
63439;BME280;49567;48.958;8.294;2022-11-18T12:18:35;99226.47;;;12.20;84.88
63439;BME280;49567;48.958;8.294;2022-11-18T12:21:04;99226.47;;;12.20;84.82
63439;BME280;49567;48.958;8.294;2022-11-18T12:23:30;99229.00;;;12.12;84.50
63439;BME280;49567;48.958;8.294;2022-11-18T12:26:04;99236.09;;;12.03;84.56
63439;BME280;49567;48.958;8.294;2022-11-18T12:33:46;99235.91;;;11.94;84.60
63439;BME280;49567;48.958;8.294;2022-11-18T12:36:38;99239.69;;;11.98;84.15
63439;BME280;49567;48.958;8.294;2022-11-18T12:41:58;99238.38;;;11.90;83.77
63439;BME280;49567;48.958;8.294;2022-11-18T12:44:44;99230.47;;;11.94;83.25
63439;BME280;49567;48.958;8.294;2022-11-18T12:47:14;99233.69;;;12.01;83.39
63439;BME280;49567;48.958;8.294;2022-11-18T12:54:58;99242.72;;;11.91;82.43
63439;BME280;49567;48.958;8.294;2022-11-18T12:57:33;99240.59;;;11.83;82.43
63439;BME280;49567;48.958;8.294;2022-11-18T13:00:28;99239.53;;;11.79;82.28
63439;BME280;49567;48.958;8.294;2022-11-18T13:02:58;99238.53;;;11.70;81.86
63439;BME280;49567;48.958;8.294;2022-11-18T13:05:32;99231.72;;;11.73;82.04
63439;BME280;49567;48.958;8.294;2022-11-18T13:08:02;99239.84;;;11.78;81.85
63439;BME280;49567;48.958;8.294;2022-11-18T13:10:43;99232.19;;;11.85;81.60
63439;BME280;49567;48.958;8.294;2022-11-18T13:13:29;99237.25;;;11.96;81.44
63439;BME280;49567;48.958;8.294;2022-11-18T13:15:58;99236.91;;;12.03;81.28
63439;BME280;49567;48.958;8.294;2022-11-18T13:18:49;99244.75;;;12.10;80.74
63439;BME280;49567;48.958;8.294;2022-11-18T13:21:23;99244.22;;;12.08;81.10
63439;BME280;49567;48.958;8.294;2022-11-18T13:24:11;99243.34;;;12.12;81.12
63439;BME280;49567;48.958;8.294;2022-11-18T13:26:38;99242.56;;;12.12;80.41
63439;BME280;49567;48.958;8.294;2022-11-18T13:31:58;99238.00;;;12.02;80.06
63439;BME280;49567;48.958;8.294;2022-11-18T13:34:28;99234.81;;;11.95;79.91
63439;BME280;49567;48.958;8.294;2022-11-18T13:36:55;99232.34;;;11.99;79.93
63439;BME280;49567;48.958;8.294;2022-11-18T13:39:27;99230.72;;;11.98;79.96
63439;BME280;49567;48.958;8.294;2022-11-18T13:42:01;99232.31;;;12.04;79.44
63439;BME280;49567;48.958;8.294;2022-11-18T13:44:29;99227.94;;;12.08;79.52
63439;BME280;49567;48.958;8.294;2022-11-18T13:50:00;99230.91;;;12.11;78.93
63439;BME280;49567;48.958;8.294;2022-11-18T13:52:28;99237.34;;;12.15;78.04
63439;BME280;49567;48.958;8.294;2022-11-18T13:54:56;99232.91;;;12.29;77.80
63439;BME280;49567;48.958;8.294;2022-11-18T13:57:24;99229.09;;;12.30;77.08
63439;BME280;49567;48.958;8.294;2022-11-18T13:59:52;99232.66;;;12.26;77.03
63439;BME280;49567;48.958;8.294;2022-11-18T14:02:19;99235.19;;;12.17;76.91
63439;BME280;49567;48.958;8.294;2022-11-18T14:04:53;99239.03;;;12.11;76.74
63439;BME280;49567;48.958;8.294;2022-11-18T14:07:27;99240.41;;;12.09;76.18
63439;BME280;49567;48.958;8.294;2022-11-18T14:09:59;99243.94;;;12.09;76.67
63439;BME280;49567;48.958;8.294;2022-11-18T14:12:28;99237.97;;;12.07;76.24
63439;BME280;49567;48.958;8.294;2022-11-18T14:15:18;99249.94;;;12.06;76.53
63439;BME280;49567;48.958;8.294;2022-11-18T14:17:55;99253.44;;;12.12;76.86
63439;BME280;49567;48.958;8.294;2022-11-18T14:20:22;99252.03;;;12.14;76.77